sensor_id;sensor_type;location;lat;lon;timestamp;P1;durP1;ratioP1;P2;durP2;ratioP2
37847;SDS011;23688;33.130;-117.188;2024-03-22T00:02:17;15.00;;;5.15;;
37847;SDS011;23688;33.130;-117.188;2024-03-22T00:04:43;8.65;;;4.70;;
37847;SDS011;23688;33.130;-117.188;2024-03-22T00:07:10;17.40;;;5.25;;
37847;SDS011;23688;33.130;-117.188;2024-03-22T00:09:36;10.02;;;4.15;;
37847;SDS011;23688;33.130;-117.188;2024-03-22T00:12:03;11.45;;;4.30;;
37847;SDS011;23688;33.130;-117.188;2024-03-22T00:14:30;11.93;;;4.53;;
37847;SDS011;23688;33.130;-117.188;2024-03-22T00:16:56;11.88;;;4.53;;
37847;SDS011;23688;33.130;-117.188;2024-03-22T00:19:23;10.30;;;3.63;;
37847;SDS011;23688;33.130;-117.188;2024-03-22T00:21:49;14.20;;;4.68;;
37847;SDS011;23688;33.130;-117.188;2024-03-22T00:24:16;8.77;;;3.90;;
37847;SDS011;23688;33.130;-117.188;2024-03-22T00:26:42;9.38;;;4.18;;
37847;SDS011;23688;33.130;-117.188;2024-03-22T00:29:09;10.80;;;4.70;;
37847;SDS011;23688;33.130;-117.188;2024-03-22T00:31:36;15.15;;;5.05;;
37847;SDS011;23688;33.130;-117.188;2024-03-22T00:34:02;11.02;;;4.60;;
37847;SDS011;23688;33.130;-117.188;2024-03-22T00:36:28;9.18;;;4.82;;
37847;SDS011;23688;33.130;-117.188;2024-03-22T00:38:55;8.43;;;4.40;;
37847;SDS011;23688;33.130;-117.188;2024-03-22T00:41:22;14.40;;;4.97;;
37847;SDS011;23688;33.130;-117.188;2024-03-22T00:43:48;14.50;;;5.20;;
37847;SDS011;23688;33.130;-117.188;2024-03-22T00:46:19;14.63;;;5.30;;
37847;SDS011;23688;33.130;-117.188;2024-03-22T00:48:46;8.93;;;4.47;;
37847;SDS011;23688;33.130;-117.188;2024-03-22T00:51:12;9.80;;;4.82;;
37847;SDS011;23688;33.130;-117.188;2024-03-22T00:53:39;12.30;;;5.10;;
37847;SDS011;23688;33.130;-117.188;2024-03-22T00:56:05;12.70;;;5.43;;
37847;SDS011;23688;33.130;-117.188;2024-03-22T00:58:32;13.18;;;4.40;;
37847;SDS011;23688;33.130;-117.188;2024-03-22T01:00:58;8.75;;;5.00;;
37847;SDS011;23688;33.130;-117.188;2024-03-22T01:03:24;13.23;;;5.10;;
37847;SDS011;23688;33.130;-117.188;2024-03-22T01:05:55;11.07;;;5.25;;
37847;SDS011;23688;33.130;-117.188;2024-03-22T01:08:22;13.88;;;4.47;;
37847;SDS011;23688;33.130;-117.188;2024-03-22T01:10:49;13.10;;;5.28;;
37847;SDS011;23688;33.130;-117.188;2024-03-22T01:13:16;10.65;;;4.57;;
37847;SDS011;23688;33.130;-117.188;2024-03-22T01:15:44;10.53;;;4.73;;
37847;SDS011;23688;33.130;-117.188;2024-03-22T01:18:13;8.07;;;4.93;;
37847;SDS011;23688;33.130;-117.188;2024-03-22T01:20:40;11.50;;;5.05;;
37847;SDS011;23688;33.130;-117.188;2024-03-22T01:23:07;22.60;;;4.95;;
37847;SDS011;23688;33.130;-117.188;2024-03-22T01:25:34;13.40;;;4.97;;
37847;SDS011;23688;33.130;-117.188;2024-03-22T01:28:00;10.60;;;5.20;;
37847;SDS011;23688;33.130;-117.188;2024-03-22T01:30:29;15.75;;;5.43;;
37847;SDS011;23688;33.130;-117.188;2024-03-22T01:32:58;9.68;;;5.20;;
37847;SDS011;23688;33.130;-117.188;2024-03-22T01:35:25;13.45;;;5.88;;
37847;SDS011;23688;33.130;-117.188;2024-03-22T01:37:51;13.60;;;5.72;;
37847;SDS011;23688;33.130;-117.188;2024-03-22T01:40:18;16.25;;;5.22;;
37847;SDS011;23688;33.130;-117.188;2024-03-22T01:42:44;10.38;;;5.57;;
37847;SDS011;23688;33.130;-117.188;2024-03-22T01:45:12;11.63;;;6.20;;
37847;SDS011;23688;33.130;-117.188;2024-03-22T01:47:41;14.55;;;5.95;;
37847;SDS011;23688;33.130;-117.188;2024-03-22T01:50:08;15.63;;;6.25;;
37847;SDS011;23688;33.130;-117.188;2024-03-22T01:55:04;18.15;;;6.70;;
37847;SDS011;23688;33.130;-117.188;2024-03-22T01:57:32;17.27;;;6.97;;
37847;SDS011;23688;33.130;-117.188;2024-03-22T02:00:01;16.08;;;6.22;;
37847;SDS011;23688;33.130;-117.188;2024-03-22T02:02:28;20.90;;;6.47;;
37847;SDS011;23688;33.130;-117.188;2024-03-22T02:04:55;18.55;;;6.95;;
37847;SDS011;23688;33.130;-117.188;2024-03-22T02:07:23;15.40;;;7.45;;
37847;SDS011;23688;33.130;-117.188;2024-03-22T02:09:49;13.73;;;7.07;;
37847;SDS011;23688;33.130;-117.188;2024-03-22T02:12:17;15.07;;;6.68;;
37847;SDS011;23688;33.130;-117.188;2024-03-22T02:14:43;15.05;;;7.07;;
37847;SDS011;23688;33.130;-117.188;2024-03-22T02:17:10;15.23;;;7.25;;
37847;SDS011;23688;33.130;-117.188;2024-03-22T02:19:37;11.40;;;6.43;;
37847;SDS011;23688;33.130;-117.188;2024-03-22T02:22:05;17.88;;;7.13;;
37847;SDS011;23688;33.130;-117.188;2024-03-22T02:24:31;11.68;;;7.53;;
37847;SDS011;23688;33.130;-117.188;2024-03-22T02:26:58;20.90;;;7.03;;
37847;SDS011;23688;33.130;-117.188;2024-03-22T02:29:24;21.25;;;7.57;;
37847;SDS011;23688;33.130;-117.188;2024-03-22T02:31:51;15.60;;;8.50;;
37847;SDS011;23688;33.130;-117.188;2024-03-22T02:34:17;17.15;;;7.15;;
37847;SDS011;23688;33.130;-117.188;2024-03-22T02:36:44;14.50;;;6.45;;
37847;SDS011;23688;33.130;-117.188;2024-03-22T02:39:10;18.50;;;8.02;;
37847;SDS011;23688;33.130;-117.188;2024-03-22T02:41:37;16.40;;;7.05;;
37847;SDS011;23688;33.130;-117.188;2024-03-22T02:44:03;13.48;;;7.05;;
37847;SDS011;23688;33.130;-117.188;2024-03-22T02:46:30;12.75;;;6.57;;
37847;SDS011;23688;33.130;-117.188;2024-03-22T02:48:59;18.17;;;6.93;;
37847;SDS011;23688;33.130;-117.188;2024-03-22T02:51:25;15.30;;;6.95;;
37847;SDS011;23688;33.130;-117.188;2024-03-22T02:53:52;14.60;;;7.88;;
37847;SDS011;23688;33.130;-117.188;2024-03-22T02:56:18;22.02;;;7.63;;
37847;SDS011;23688;33.130;-117.188;2024-03-22T02:58:45;20.42;;;8.88;;
37847;SDS011;23688;33.130;-117.188;2024-03-22T03:01:11;15.63;;;6.88;;
37847;SDS011;23688;33.130;-117.188;2024-03-22T03:03:39;21.80;;;6.88;;
37847;SDS011;23688;33.130;-117.188;2024-03-22T03:06:05;19.38;;;7.22;;
37847;SDS011;23688;33.130;-117.188;2024-03-22T03:08:32;13.15;;;7.18;;
37847;SDS011;23688;33.130;-117.188;2024-03-22T03:10:58;18.20;;;6.70;;
37847;SDS011;23688;33.130;-117.188;2024-03-22T03:13:24;14.40;;;8.50;;
37847;SDS011;23688;33.130;-117.188;2024-03-22T03:15:51;13.07;;;8.35;;
37847;SDS011;23688;33.130;-117.188;2024-03-22T03:18:17;11.63;;;6.57;;
37847;SDS011;23688;33.130;-117.188;2024-03-22T03:20:44;15.45;;;7.55;;
37847;SDS011;23688;33.130;-117.188;2024-03-22T03:23:10;21.48;;;8.13;;
37847;SDS011;23688;33.130;-117.188;2024-03-22T03:25:36;19.65;;;7.65;;
37847;SDS011;23688;33.130;-117.188;2024-03-22T03:28:03;19.67;;;8.25;;
37847;SDS011;23688;33.130;-117.188;2024-03-22T03:30:30;15.18;;;7.13;;
37847;SDS011;23688;33.130;-117.188;2024-03-22T03:32:57;13.73;;;7.13;;
37847;SDS011;23688;33.130;-117.188;2024-03-22T03:35:23;13.57;;;7.25;;
37847;SDS011;23688;33.130;-117.188;2024-03-22T03:37:51;19.98;;;7.82;;
37847;SDS011;23688;33.130;-117.188;2024-03-22T03:40:17;18.45;;;7.60;;
37847;SDS011;23688;33.130;-117.188;2024-03-22T03:42:44;16.05;;;7.90;;
37847;SDS011;23688;33.130;-117.188;2024-03-22T03:45:10;22.75;;;7.35;;
37847;SDS011;23688;33.130;-117.188;2024-03-22T03:47:38;16.70;;;7.70;;
37847;SDS011;23688;33.130;-117.188;2024-03-22T03:50:04;18.65;;;7.85;;
37847;SDS011;23688;33.130;-117.188;2024-03-22T03:52:31;18.67;;;7.28;;
37847;SDS011;23688;33.130;-117.188;2024-03-22T03:54:57;15.52;;;7.35;;
37847;SDS011;23688;33.130;-117.188;2024-03-22T03:57:23;16.38;;;8.25;;
37847;SDS011;23688;33.130;-117.188;2024-03-22T03:59:50;19.02;;;8.07;;
37847;SDS011;23688;33.130;-117.188;2024-03-22T04:02:16;25.55;;;8.07;;
37847;SDS011;23688;33.130;-117.188;2024-03-22T04:04:42;19.38;;;7.10;;
37847;SDS011;23688;33.130;-117.188;2024-03-22T04:07:09;15.13;;;7.35;;
37847;SDS011;23688;33.130;-117.188;2024-03-22T04:09:35;17.60;;;7.63;;
37847;SDS011;23688;33.130;-117.188;2024-03-22T04:12:01;15.43;;;7.40;;
37847;SDS011;23688;33.130;-117.188;2024-03-22T04:14:28;11.88;;;7.75;;
37847;SDS011;23688;33.130;-117.188;2024-03-22T04:16:54;17.65;;;7.80;;
37847;SDS011;23688;33.130;-117.188;2024-03-22T04:19:21;17.30;;;7.85;;
37847;SDS011;23688;33.130;-117.188;2024-03-22T04:21:49;17.83;;;7.82;;
37847;SDS011;23688;33.130;-117.188;2024-03-22T04:24:15;15.70;;;7.43;;
37847;SDS011;23688;33.130;-117.188;2024-03-22T04:26:42;19.85;;;7.78;;
37847;SDS011;23688;33.130;-117.188;2024-03-22T04:29:08;12.20;;;6.95;;
37847;SDS011;23688;33.130;-117.188;2024-03-22T04:31:35;14.15;;;7.53;;
37847;SDS011;23688;33.130;-117.188;2024-03-22T04:34:03;16.30;;;6.70;;
37847;SDS011;23688;33.130;-117.188;2024-03-22T04:36:32;15.75;;;7.55;;
37847;SDS011;23688;33.130;-117.188;2024-03-22T04:38:59;15.45;;;7.13;;
37847;SDS011;23688;33.130;-117.188;2024-03-22T04:41:25;20.23;;;7.35;;
37847;SDS011;23688;33.130;-117.188;2024-03-22T04:43:52;14.70;;;7.40;;
37847;SDS011;23688;33.130;-117.188;2024-03-22T04:46:20;14.85;;;7.45;;
37847;SDS011;23688;33.130;-117.188;2024-03-22T04:48:46;16.80;;;7.63;;
37847;SDS011;23688;33.130;-117.188;2024-03-22T04:51:12;23.88;;;8.25;;
37847;SDS011;23688;33.130;-117.188;2024-03-22T04:53:38;10.68;;;6.72;;
37847;SDS011;23688;33.130;-117.188;2024-03-22T04:56:05;15.30;;;8.25;;
37847;SDS011;23688;33.130;-117.188;2024-03-22T04:58:32;15.13;;;8.40;;
37847;SDS011;23688;33.130;-117.188;2024-03-22T05:00:59;18.80;;;8.75;;
37847;SDS011;23688;33.130;-117.188;2024-03-22T05:03:25;18.65;;;8.25;;
37847;SDS011;23688;33.130;-117.188;2024-03-22T05:05:51;20.23;;;7.88;;
37847;SDS011;23688;33.130;-117.188;2024-03-22T05:08:17;18.85;;;8.57;;
37847;SDS011;23688;33.130;-117.188;2024-03-22T05:10:44;16.48;;;7.88;;
37847;SDS011;23688;33.130;-117.188;2024-03-22T05:13:10;21.50;;;8.30;;
37847;SDS011;23688;33.130;-117.188;2024-03-22T05:15:36;19.98;;;8.43;;
37847;SDS011;23688;33.130;-117.188;2024-03-22T05:18:03;16.77;;;8.07;;
37847;SDS011;23688;33.130;-117.188;2024-03-22T05:20:30;13.50;;;8.40;;
37847;SDS011;23688;33.130;-117.188;2024-03-22T05:22:56;19.23;;;8.55;;
37847;SDS011;23688;33.130;-117.188;2024-03-22T05:25:22;15.73;;;8.57;;
37847;SDS011;23688;33.130;-117.188;2024-03-22T05:27:48;27.13;;;9.02;;
37847;SDS011;23688;33.130;-117.188;2024-03-22T05:30:15;18.08;;;8.18;;
37847;SDS011;23688;33.130;-117.188;2024-03-22T05:32:41;16.70;;;8.82;;
37847;SDS011;23688;33.130;-117.188;2024-03-22T05:35:08;19.50;;;8.52;;
37847;SDS011;23688;33.130;-117.188;2024-03-22T05:37:34;15.10;;;8.45;;
37847;SDS011;23688;33.130;-117.188;2024-03-22T05:40:02;14.80;;;8.13;;
37847;SDS011;23688;33.130;-117.188;2024-03-22T05:42:30;17.08;;;8.60;;
37847;SDS011;23688;33.130;-117.188;2024-03-22T05:44:56;16.27;;;8.70;;
37847;SDS011;23688;33.130;-117.188;2024-03-22T05:47:22;16.67;;;8.70;;
37847;SDS011;23688;33.130;-117.188;2024-03-22T05:49:49;17.33;;;9.50;;
37847;SDS011;23688;33.130;-117.188;2024-03-22T05:52:15;20.10;;;8.48;;
37847;SDS011;23688;33.130;-117.188;2024-03-22T05:54:41;15.45;;;8.50;;
37847;SDS011;23688;33.130;-117.188;2024-03-22T05:57:08;19.45;;;9.52;;
37847;SDS011;23688;33.130;-117.188;2024-03-22T05:59:34;17.45;;;10.10;;
37847;SDS011;23688;33.130;-117.188;2024-03-22T06:02:01;21.48;;;10.88;;
37847;SDS011;23688;33.130;-117.188;2024-03-22T06:04:27;33.13;;;11.20;;
37847;SDS011;23688;33.130;-117.188;2024-03-22T06:06:54;19.40;;;10.30;;
37847;SDS011;23688;33.130;-117.188;2024-03-22T06:09:20;15.80;;;9.82;;
37847;SDS011;23688;33.130;-117.188;2024-03-22T06:11:59;13.93;;;8.38;;
37847;SDS011;23688;33.130;-117.188;2024-03-22T06:14:27;17.67;;;9.13;;
37847;SDS011;23688;33.130;-117.188;2024-03-22T06:16:54;23.40;;;10.15;;
37847;SDS011;23688;33.130;-117.188;2024-03-22T06:19:21;17.10;;;8.63;;
37847;SDS011;23688;33.130;-117.188;2024-03-22T06:21:47;19.85;;;9.43;;
37847;SDS011;23688;33.130;-117.188;2024-03-22T06:24:13;17.50;;;9.25;;
37847;SDS011;23688;33.130;-117.188;2024-03-22T06:26:40;30.20;;;11.85;;
37847;SDS011;23688;33.130;-117.188;2024-03-22T06:29:06;19.92;;;10.75;;
37847;SDS011;23688;33.130;-117.188;2024-03-22T06:31:32;22.98;;;11.05;;
37847;SDS011;23688;33.130;-117.188;2024-03-22T06:33:59;21.33;;;12.50;;
37847;SDS011;23688;33.130;-117.188;2024-03-22T06:36:31;24.08;;;14.35;;
37847;SDS011;23688;33.130;-117.188;2024-03-22T06:39:00;26.65;;;13.10;;
37847;SDS011;23688;33.130;-117.188;2024-03-22T06:41:28;21.73;;;10.23;;
37847;SDS011;23688;33.130;-117.188;2024-03-22T06:43:54;15.25;;;10.13;;
37847;SDS011;23688;33.130;-117.188;2024-03-22T06:46:20;23.08;;;10.27;;
37847;SDS011;23688;33.130;-117.188;2024-03-22T06:48:46;24.10;;;10.18;;
37847;SDS011;23688;33.130;-117.188;2024-03-22T06:51:13;22.88;;;11.07;;
37847;SDS011;23688;33.130;-117.188;2024-03-22T06:53:39;21.55;;;10.48;;
37847;SDS011;23688;33.130;-117.188;2024-03-22T06:56:05;20.42;;;11.20;;
37847;SDS011;23688;33.130;-117.188;2024-03-22T06:58:35;27.67;;;11.38;;
37847;SDS011;23688;33.130;-117.188;2024-03-22T07:01:02;20.98;;;12.50;;
37847;SDS011;23688;33.130;-117.188;2024-03-22T07:03:29;24.67;;;11.48;;
37847;SDS011;23688;33.130;-117.188;2024-03-22T07:05:55;20.77;;;12.15;;
37847;SDS011;23688;33.130;-117.188;2024-03-22T07:08:23;22.10;;;11.32;;
37847;SDS011;23688;33.130;-117.188;2024-03-22T07:10:53;35.00;;;17.50;;
37847;SDS011;23688;33.130;-117.188;2024-03-22T07:13:20;40.83;;;20.35;;
37847;SDS011;23688;33.130;-117.188;2024-03-22T07:15:47;38.38;;;18.17;;
37847;SDS011;23688;33.130;-117.188;2024-03-22T07:18:13;26.77;;;15.02;;
37847;SDS011;23688;33.130;-117.188;2024-03-22T07:20:40;27.88;;;15.50;;
37847;SDS011;23688;33.130;-117.188;2024-03-22T07:23:10;42.50;;;21.35;;
37847;SDS011;23688;33.130;-117.188;2024-03-22T07:25:36;32.30;;;19.35;;
37847;SDS011;23688;33.130;-117.188;2024-03-22T07:28:02;37.33;;;19.42;;
37847;SDS011;23688;33.130;-117.188;2024-03-22T07:30:29;44.72;;;19.80;;
37847;SDS011;23688;33.130;-117.188;2024-03-22T07:32:55;44.97;;;21.17;;
37847;SDS011;23688;33.130;-117.188;2024-03-22T07:35:21;41.65;;;21.98;;
37847;SDS011;23688;33.130;-117.188;2024-03-22T07:37:48;45.08;;;22.17;;
37847;SDS011;23688;33.130;-117.188;2024-03-22T07:40:14;39.42;;;20.90;;
37847;SDS011;23688;33.130;-117.188;2024-03-22T07:42:40;41.55;;;23.10;;
37847;SDS011;23688;33.130;-117.188;2024-03-22T07:45:07;48.92;;;23.05;;
37847;SDS011;23688;33.130;-117.188;2024-03-22T07:47:35;41.72;;;20.52;;
37847;SDS011;23688;33.130;-117.188;2024-03-22T07:50:02;39.92;;;21.55;;
37847;SDS011;23688;33.130;-117.188;2024-03-22T07:52:30;39.45;;;20.85;;
37847;SDS011;23688;33.130;-117.188;2024-03-22T07:54:56;36.10;;;19.50;;
37847;SDS011;23688;33.130;-117.188;2024-03-22T07:57:22;33.58;;;20.42;;
37847;SDS011;23688;33.130;-117.188;2024-03-22T07:59:49;38.75;;;21.00;;
37847;SDS011;23688;33.130;-117.188;2024-03-22T08:02:15;38.70;;;21.77;;
37847;SDS011;23688;33.130;-117.188;2024-03-22T08:04:42;45.28;;;20.52;;
37847;SDS011;23688;33.130;-117.188;2024-03-22T08:07:09;49.70;;;22.92;;
37847;SDS011;23688;33.130;-117.188;2024-03-22T08:09:35;43.08;;;20.70;;
37847;SDS011;23688;33.130;-117.188;2024-03-22T08:12:01;41.83;;;20.33;;
37847;SDS011;23688;33.130;-117.188;2024-03-22T08:14:28;41.70;;;21.08;;
37847;SDS011;23688;33.130;-117.188;2024-03-22T08:16:54;43.03;;;21.50;;
37847;SDS011;23688;33.130;-117.188;2024-03-22T08:19:24;42.72;;;22.23;;
37847;SDS011;23688;33.130;-117.188;2024-03-22T08:21:51;41.17;;;22.60;;
37847;SDS011;23688;33.130;-117.188;2024-03-22T08:24:18;42.80;;;21.58;;
37847;SDS011;23688;33.130;-117.188;2024-03-22T08:26:44;43.20;;;22.00;;
37847;SDS011;23688;33.130;-117.188;2024-03-22T08:29:12;39.60;;;20.48;;
37847;SDS011;23688;33.130;-117.188;2024-03-22T08:31:42;39.15;;;20.92;;
37847;SDS011;23688;33.130;-117.188;2024-03-22T08:34:09;34.13;;;18.65;;
37847;SDS011;23688;33.130;-117.188;2024-03-22T08:36:35;40.08;;;23.02;;
37847;SDS011;23688;33.130;-117.188;2024-03-22T08:39:01;37.15;;;21.05;;
37847;SDS011;23688;33.130;-117.188;2024-03-22T08:41:29;36.95;;;21.65;;
37847;SDS011;23688;33.130;-117.188;2024-03-22T08:43:55;44.22;;;23.00;;
37847;SDS011;23688;33.130;-117.188;2024-03-22T08:46:22;41.08;;;22.45;;
37847;SDS011;23688;33.130;-117.188;2024-03-22T08:48:52;47.92;;;21.40;;
37847;SDS011;23688;33.130;-117.188;2024-03-22T08:51:19;38.25;;;20.30;;
37847;SDS011;23688;33.130;-117.188;2024-03-22T08:53:46;38.03;;;19.33;;
37847;SDS011;23688;33.130;-117.188;2024-03-22T08:56:13;29.65;;;17.90;;
37847;SDS011;23688;33.130;-117.188;2024-03-22T08:58:39;35.95;;;17.88;;
37847;SDS011;23688;33.130;-117.188;2024-03-22T09:01:06;36.35;;;17.02;;
37847;SDS011;23688;33.130;-117.188;2024-03-22T09:03:35;31.02;;;17.15;;
37847;SDS011;23688;33.130;-117.188;2024-03-22T09:06:02;29.38;;;15.35;;
37847;SDS011;23688;33.130;-117.188;2024-03-22T09:08:29;28.10;;;16.08;;
37847;SDS011;23688;33.130;-117.188;2024-03-22T09:10:56;30.15;;;16.50;;
37847;SDS011;23688;33.130;-117.188;2024-03-22T09:13:22;30.55;;;15.15;;
37847;SDS011;23688;33.130;-117.188;2024-03-22T09:15:56;30.97;;;16.00;;
37847;SDS011;23688;33.130;-117.188;2024-03-22T09:18:25;31.17;;;15.52;;
37847;SDS011;23688;33.130;-117.188;2024-03-22T09:20:58;26.95;;;16.30;;
37847;SDS011;23688;33.130;-117.188;2024-03-22T09:23:24;27.75;;;17.17;;
37847;SDS011;23688;33.130;-117.188;2024-03-22T09:25:51;27.40;;;16.90;;
37847;SDS011;23688;33.130;-117.188;2024-03-22T09:28:17;29.77;;;18.00;;
37847;SDS011;23688;33.130;-117.188;2024-03-22T09:30:44;27.15;;;16.33;;
37847;SDS011;23688;33.130;-117.188;2024-03-22T09:33:10;24.48;;;15.05;;
37847;SDS011;23688;33.130;-117.188;2024-03-22T09:35:36;21.83;;;13.05;;
37847;SDS011;23688;33.130;-117.188;2024-03-22T09:38:03;23.90;;;14.02;;
37847;SDS011;23688;33.130;-117.188;2024-03-22T09:40:31;24.17;;;14.03;;
37847;SDS011;23688;33.130;-117.188;2024-03-22T09:42:59;22.08;;;12.77;;
37847;SDS011;23688;33.130;-117.188;2024-03-22T09:45:31;28.08;;;14.02;;
37847;SDS011;23688;33.130;-117.188;2024-03-22T09:47:58;22.17;;;14.50;;
37847;SDS011;23688;33.130;-117.188;2024-03-22T09:50:25;29.70;;;15.25;;
37847;SDS011;23688;33.130;-117.188;2024-03-22T09:52:52;30.70;;;15.70;;
37847;SDS011;23688;33.130;-117.188;2024-03-22T09:55:21;36.00;;;17.13;;
37847;SDS011;23688;33.130;-117.188;2024-03-22T09:57:49;26.33;;;16.23;;
37847;SDS011;23688;33.130;-117.188;2024-03-22T10:00:18;36.20;;;18.30;;
37847;SDS011;23688;33.130;-117.188;2024-03-22T10:02:50;39.10;;;21.92;;
37847;SDS011;23688;33.130;-117.188;2024-03-22T10:05:16;56.28;;;22.65;;
37847;SDS011;23688;33.130;-117.188;2024-03-22T10:07:45;37.50;;;23.42;;
37847;SDS011;23688;33.130;-117.188;2024-03-22T10:10:12;42.95;;;23.30;;
37847;SDS011;23688;33.130;-117.188;2024-03-22T10:12:43;42.05;;;22.67;;
37847;SDS011;23688;33.130;-117.188;2024-03-22T10:15:09;34.17;;;22.67;;
37847;SDS011;23688;33.130;-117.188;2024-03-22T10:17:37;40.03;;;22.05;;
37847;SDS011;23688;33.130;-117.188;2024-03-22T10:20:03;41.78;;;20.35;;
37847;SDS011;23688;33.130;-117.188;2024-03-22T10:22:32;26.67;;;17.90;;
37847;SDS011;23688;33.130;-117.188;2024-03-22T10:24:58;27.00;;;17.48;;
37847;SDS011;23688;33.130;-117.188;2024-03-22T10:27:27;25.83;;;16.87;;
37847;SDS011;23688;33.130;-117.188;2024-03-22T10:29:54;24.00;;;14.32;;
37847;SDS011;23688;33.130;-117.188;2024-03-22T10:32:21;26.33;;;14.65;;
37847;SDS011;23688;33.130;-117.188;2024-03-22T10:34:49;29.15;;;15.30;;
37847;SDS011;23688;33.130;-117.188;2024-03-22T10:37:16;23.80;;;15.40;;
37847;SDS011;23688;33.130;-117.188;2024-03-22T10:39:43;26.52;;;15.13;;
37847;SDS011;23688;33.130;-117.188;2024-03-22T10:42:12;28.65;;;16.45;;
37847;SDS011;23688;33.130;-117.188;2024-03-22T10:44:40;29.50;;;16.42;;
37847;SDS011;23688;33.130;-117.188;2024-03-22T10:47:06;26.52;;;14.77;;
37847;SDS011;23688;33.130;-117.188;2024-03-22T10:49:37;22.80;;;14.20;;
37847;SDS011;23688;33.130;-117.188;2024-03-22T10:52:03;29.30;;;15.40;;
37847;SDS011;23688;33.130;-117.188;2024-03-22T10:54:37;24.65;;;15.35;;
37847;SDS011;23688;33.130;-117.188;2024-03-22T10:57:07;22.02;;;13.38;;
37847;SDS011;23688;33.130;-117.188;2024-03-22T10:59:40;24.30;;;13.98;;
37847;SDS011;23688;33.130;-117.188;2024-03-22T11:02:12;26.05;;;14.30;;
37847;SDS011;23688;33.130;-117.188;2024-03-22T11:04:38;22.48;;;13.20;;
37847;SDS011;23688;33.130;-117.188;2024-03-22T11:07:05;26.08;;;13.73;;
37847;SDS011;23688;33.130;-117.188;2024-03-22T11:09:31;26.38;;;14.38;;
37847;SDS011;23688;33.130;-117.188;2024-03-22T11:11:57;29.38;;;14.60;;
37847;SDS011;23688;33.130;-117.188;2024-03-22T11:14:25;22.85;;;14.30;;
37847;SDS011;23688;33.130;-117.188;2024-03-22T11:16:52;24.98;;;14.90;;
37847;SDS011;23688;33.130;-117.188;2024-03-22T11:19:18;32.83;;;14.88;;
37847;SDS011;23688;33.130;-117.188;2024-03-22T11:21:45;28.45;;;15.80;;
37847;SDS011;23688;33.130;-117.188;2024-03-22T11:24:11;31.55;;;14.05;;
37847;SDS011;23688;33.130;-117.188;2024-03-22T11:26:40;23.65;;;14.13;;
37847;SDS011;23688;33.130;-117.188;2024-03-22T11:29:06;33.97;;;17.00;;
37847;SDS011;23688;33.130;-117.188;2024-03-22T11:31:33;29.73;;;17.27;;
37847;SDS011;23688;33.130;-117.188;2024-03-22T11:34:03;25.95;;;17.40;;
37847;SDS011;23688;33.130;-117.188;2024-03-22T11:36:30;35.20;;;19.38;;
37847;SDS011;23688;33.130;-117.188;2024-03-22T11:38:56;31.20;;;18.00;;
37847;SDS011;23688;33.130;-117.188;2024-03-22T11:41:24;31.27;;;16.10;;
37847;SDS011;23688;33.130;-117.188;2024-03-22T11:43:53;24.30;;;14.10;;
37847;SDS011;23688;33.130;-117.188;2024-03-22T11:46:20;26.42;;;14.07;;
37847;SDS011;23688;33.130;-117.188;2024-03-22T11:48:56;27.17;;;15.35;;
37847;SDS011;23688;33.130;-117.188;2024-03-22T11:51:24;22.73;;;14.25;;
37847;SDS011;23688;33.130;-117.188;2024-03-22T11:53:51;17.15;;;12.40;;
37847;SDS011;23688;33.130;-117.188;2024-03-22T11:56:19;20.80;;;13.68;;
37847;SDS011;23688;33.130;-117.188;2024-03-22T11:58:49;23.05;;;14.07;;
37847;SDS011;23688;33.130;-117.188;2024-03-22T12:01:23;25.58;;;15.82;;
37847;SDS011;23688;33.130;-117.188;2024-03-22T12:03:49;27.17;;;15.57;;
37847;SDS011;23688;33.130;-117.188;2024-03-22T12:06:15;26.23;;;16.25;;
37847;SDS011;23688;33.130;-117.188;2024-03-22T12:08:42;21.88;;;12.75;;
37847;SDS011;23688;33.130;-117.188;2024-03-22T12:11:08;16.48;;;12.25;;
37847;SDS011;23688;33.130;-117.188;2024-03-22T12:13:37;21.10;;;13.15;;
37847;SDS011;23688;33.130;-117.188;2024-03-22T12:16:03;23.20;;;13.88;;
37847;SDS011;23688;33.130;-117.188;2024-03-22T12:18:31;19.42;;;11.98;;
37847;SDS011;23688;33.130;-117.188;2024-03-22T12:20:57;22.13;;;13.27;;
37847;SDS011;23688;33.130;-117.188;2024-03-22T12:23:23;26.20;;;12.65;;
37847;SDS011;23688;33.130;-117.188;2024-03-22T12:25:52;25.92;;;14.05;;
37847;SDS011;23688;33.130;-117.188;2024-03-22T12:28:22;22.20;;;13.70;;
37847;SDS011;23688;33.130;-117.188;2024-03-22T12:30:49;24.85;;;14.40;;
37847;SDS011;23688;33.130;-117.188;2024-03-22T12:33:15;28.77;;;14.77;;
37847;SDS011;23688;33.130;-117.188;2024-03-22T12:35:42;20.08;;;12.68;;
37847;SDS011;23688;33.130;-117.188;2024-03-22T12:38:09;21.85;;;12.15;;
37847;SDS011;23688;33.130;-117.188;2024-03-22T12:40:39;22.25;;;12.65;;
37847;SDS011;23688;33.130;-117.188;2024-03-22T12:43:06;25.80;;;13.95;;
37847;SDS011;23688;33.130;-117.188;2024-03-22T12:45:36;23.98;;;13.10;;
37847;SDS011;23688;33.130;-117.188;2024-03-22T12:48:03;23.25;;;14.40;;
37847;SDS011;23688;33.130;-117.188;2024-03-22T12:50:30;25.52;;;16.65;;
37847;SDS011;23688;33.130;-117.188;2024-03-22T12:52:56;25.73;;;15.30;;
37847;SDS011;23688;33.130;-117.188;2024-03-22T12:55:22;32.25;;;14.43;;
37847;SDS011;23688;33.130;-117.188;2024-03-22T12:57:49;23.50;;;13.95;;
37847;SDS011;23688;33.130;-117.188;2024-03-22T13:00:15;23.80;;;13.43;;
37847;SDS011;23688;33.130;-117.188;2024-03-22T13:02:46;20.73;;;12.85;;
37847;SDS011;23688;33.130;-117.188;2024-03-22T13:05:13;29.95;;;15.05;;
37847;SDS011;23688;33.130;-117.188;2024-03-22T13:07:40;24.95;;;14.52;;
37847;SDS011;23688;33.130;-117.188;2024-03-22T13:10:07;25.95;;;15.48;;
37847;SDS011;23688;33.130;-117.188;2024-03-22T13:12:35;20.48;;;14.20;;
37847;SDS011;23688;33.130;-117.188;2024-03-22T13:15:02;23.55;;;13.18;;
37847;SDS011;23688;33.130;-117.188;2024-03-22T13:17:29;20.83;;;12.95;;
37847;SDS011;23688;33.130;-117.188;2024-03-22T13:19:55;19.35;;;13.38;;
37847;SDS011;23688;33.130;-117.188;2024-03-22T13:22:22;19.77;;;11.07;;
37847;SDS011;23688;33.130;-117.188;2024-03-22T13:24:49;17.13;;;11.27;;
37847;SDS011;23688;33.130;-117.188;2024-03-22T13:27:16;18.60;;;10.60;;
37847;SDS011;23688;33.130;-117.188;2024-03-22T13:29:43;14.85;;;9.98;;
37847;SDS011;23688;33.130;-117.188;2024-03-22T13:32:09;19.80;;;11.45;;
37847;SDS011;23688;33.130;-117.188;2024-03-22T13:34:38;19.25;;;11.13;;
37847;SDS011;23688;33.130;-117.188;2024-03-22T13:39:31;16.00;;;10.55;;
37847;SDS011;23688;33.130;-117.188;2024-03-22T13:41:58;21.45;;;11.23;;
37847;SDS011;23688;33.130;-117.188;2024-03-22T13:44:24;18.08;;;11.32;;
37847;SDS011;23688;33.130;-117.188;2024-03-22T13:46:51;20.20;;;10.88;;
37847;SDS011;23688;33.130;-117.188;2024-03-22T13:49:19;26.27;;;11.93;;
37847;SDS011;23688;33.130;-117.188;2024-03-22T13:51:49;23.15;;;12.15;;
37847;SDS011;23688;33.130;-117.188;2024-03-22T13:54:15;19.52;;;12.18;;
37847;SDS011;23688;33.130;-117.188;2024-03-22T13:56:42;19.98;;;12.27;;